sensor_id;sensor_type;location;lat;lon;timestamp;temperature;humidity
5802;DHT22;2927;49.366;8.530;2023-07-28T00:02:22;17.50;99.90
5802;DHT22;2927;49.366;8.530;2023-07-28T00:04:48;17.50;99.90
5802;DHT22;2927;49.366;8.530;2023-07-28T00:07:13;17.50;99.90
5802;DHT22;2927;49.366;8.530;2023-07-28T00:09:39;17.50;99.90
5802;DHT22;2927;49.366;8.530;2023-07-28T00:12:04;17.50;99.90
5802;DHT22;2927;49.366;8.530;2023-07-28T00:14:30;17.50;99.90
5802;DHT22;2927;49.366;8.530;2023-07-28T00:16:57;17.50;99.90
5802;DHT22;2927;49.366;8.530;2023-07-28T00:19:22;17.50;99.90
5802;DHT22;2927;49.366;8.530;2023-07-28T00:21:49;17.50;99.90
5802;DHT22;2927;49.366;8.530;2023-07-28T00:24:15;17.50;99.90
5802;DHT22;2927;49.366;8.530;2023-07-28T00:26:41;17.50;99.90
5802;DHT22;2927;49.366;8.530;2023-07-28T00:29:06;17.50;99.90
5802;DHT22;2927;49.366;8.530;2023-07-28T00:31:33;17.60;99.90
5802;DHT22;2927;49.366;8.530;2023-07-28T00:33:59;17.60;99.90
5802;DHT22;2927;49.366;8.530;2023-07-28T00:36:24;17.60;99.90
5802;DHT22;2927;49.366;8.530;2023-07-28T00:38:50;17.60;99.90
5802;DHT22;2927;49.366;8.530;2023-07-28T00:41:15;17.60;99.90
5802;DHT22;2927;49.366;8.530;2023-07-28T00:43:41;17.60;99.90
5802;DHT22;2927;49.366;8.530;2023-07-28T00:46:07;17.60;99.90
5802;DHT22;2927;49.366;8.530;2023-07-28T00:48:33;17.60;99.90
5802;DHT22;2927;49.366;8.530;2023-07-28T00:50:59;17.70;99.90
5802;DHT22;2927;49.366;8.530;2023-07-28T00:53:25;17.70;99.90
5802;DHT22;2927;49.366;8.530;2023-07-28T00:55:51;17.70;99.90
5802;DHT22;2927;49.366;8.530;2023-07-28T00:58:17;17.70;99.90
5802;DHT22;2927;49.366;8.530;2023-07-28T01:00:43;17.70;99.90
5802;DHT22;2927;49.366;8.530;2023-07-28T01:03:08;17.70;99.90
5802;DHT22;2927;49.366;8.530;2023-07-28T01:05:44;17.70;99.90
5802;DHT22;2927;49.366;8.530;2023-07-28T01:10:57;17.80;99.90
5802;DHT22;2927;49.366;8.530;2023-07-28T01:13:23;17.70;99.90
5802;DHT22;2927;49.366;8.530;2023-07-28T01:15:48;17.80;99.90
5802;DHT22;2927;49.366;8.530;2023-07-28T01:18:14;17.80;99.90
5802;DHT22;2927;49.366;8.530;2023-07-28T01:20:41;17.80;99.90
5802;DHT22;2927;49.366;8.530;2023-07-28T01:25:47;17.80;99.90
5802;DHT22;2927;49.366;8.530;2023-07-28T01:28:13;17.80;99.90
5802;DHT22;2927;49.366;8.530;2023-07-28T01:30:39;17.80;99.90
5802;DHT22;2927;49.366;8.530;2023-07-28T01:33:08;17.70;99.90
5802;DHT22;2927;49.366;8.530;2023-07-28T01:35:35;17.70;99.90
5802;DHT22;2927;49.366;8.530;2023-07-28T01:38:01;17.80;99.90
5802;DHT22;2927;49.366;8.530;2023-07-28T01:40:26;17.80;99.90
5802;DHT22;2927;49.366;8.530;2023-07-28T01:42:52;17.70;99.90
5802;DHT22;2927;49.366;8.530;2023-07-28T01:45:17;17.80;99.90
5802;DHT22;2927;49.366;8.530;2023-07-28T01:47:43;17.80;99.90
5802;DHT22;2927;49.366;8.530;2023-07-28T01:50:09;17.80;99.90
5802;DHT22;2927;49.366;8.530;2023-07-28T01:52:34;17.80;99.90
5802;DHT22;2927;49.366;8.530;2023-07-28T01:55:00;17.70;99.90
5802;DHT22;2927;49.366;8.530;2023-07-28T01:57:26;17.70;99.90
5802;DHT22;2927;49.366;8.530;2023-07-28T01:59:53;17.70;99.90
5802;DHT22;2927;49.366;8.530;2023-07-28T02:02:19;17.70;99.90
5802;DHT22;2927;49.366;8.530;2023-07-28T02:04:44;17.70;99.90
5802;DHT22;2927;49.366;8.530;2023-07-28T02:07:10;17.70;99.90
5802;DHT22;2927;49.366;8.530;2023-07-28T02:09:35;17.70;99.90
5802;DHT22;2927;49.366;8.530;2023-07-28T02:12:01;17.70;99.90
5802;DHT22;2927;49.366;8.530;2023-07-28T02:14:26;17.70;99.90
5802;DHT22;2927;49.366;8.530;2023-07-28T02:16:52;17.70;99.90
5802;DHT22;2927;49.366;8.530;2023-07-28T02:19:17;17.70;99.90
5802;DHT22;2927;49.366;8.530;2023-07-28T02:21:43;17.70;99.90
5802;DHT22;2927;49.366;8.530;2023-07-28T02:24:08;17.70;99.90
5802;DHT22;2927;49.366;8.530;2023-07-28T02:26:34;17.70;99.90
5802;DHT22;2927;49.366;8.530;2023-07-28T02:28:59;17.70;99.90
5802;DHT22;2927;49.366;8.530;2023-07-28T02:31:25;17.80;99.90
5802;DHT22;2927;49.366;8.530;2023-07-28T02:33:50;17.80;99.90
5802;DHT22;2927;49.366;8.530;2023-07-28T02:36:16;17.80;99.90
5802;DHT22;2927;49.366;8.530;2023-07-28T02:38:41;17.80;99.90
5802;DHT22;2927;49.366;8.530;2023-07-28T02:41:07;17.80;99.90
5802;DHT22;2927;49.366;8.530;2023-07-28T02:43:33;17.80;99.90
5802;DHT22;2927;49.366;8.530;2023-07-28T02:46:00;17.80;99.90
5802;DHT22;2927;49.366;8.530;2023-07-28T02:48:26;17.80;99.90
5802;DHT22;2927;49.366;8.530;2023-07-28T02:50:52;17.80;99.90
5802;DHT22;2927;49.366;8.530;2023-07-28T02:53:18;17.80;99.90
5802;DHT22;2927;49.366;8.530;2023-07-28T02:55:44;17.80;99.90
5802;DHT22;2927;49.366;8.530;2023-07-28T02:58:11;17.80;99.90
5802;DHT22;2927;49.366;8.530;2023-07-28T03:00:38;17.80;99.90
5802;DHT22;2927;49.366;8.530;2023-07-28T03:03:04;17.80;99.90
5802;DHT22;2927;49.366;8.530;2023-07-28T03:05:31;17.80;99.90
5802;DHT22;2927;49.366;8.530;2023-07-28T03:07:57;17.80;99.90
5802;DHT22;2927;49.366;8.530;2023-07-28T03:10:23;17.80;99.90
5802;DHT22;2927;49.366;8.530;2023-07-28T03:12:48;17.80;99.90
5802;DHT22;2927;49.366;8.530;2023-07-28T03:15:14;17.80;99.90
5802;DHT22;2927;49.366;8.530;2023-07-28T03:17:39;17.80;99.90
5802;DHT22;2927;49.366;8.530;2023-07-28T03:20:05;17.80;99.90
5802;DHT22;2927;49.366;8.530;2023-07-28T03:22:31;17.80;99.90
5802;DHT22;2927;49.366;8.530;2023-07-28T03:24:57;17.80;99.90
5802;DHT22;2927;49.366;8.530;2023-07-28T03:27:22;17.80;99.90
5802;DHT22;2927;49.366;8.530;2023-07-28T03:29:48;17.80;99.90
5802;DHT22;2927;49.366;8.530;2023-07-28T03:32:13;17.80;99.90
5802;DHT22;2927;49.366;8.530;2023-07-28T03:34:39;17.80;99.90
5802;DHT22;2927;49.366;8.530;2023-07-28T03:37:05;17.80;99.90
5802;DHT22;2927;49.366;8.530;2023-07-28T03:39:30;17.80;99.90
5802;DHT22;2927;49.366;8.530;2023-07-28T03:41:56;17.70;99.90
5802;DHT22;2927;49.366;8.530;2023-07-28T03:44:22;17.70;99.90
5802;DHT22;2927;49.366;8.530;2023-07-28T03:46:48;17.70;99.90
5802;DHT22;2927;49.366;8.530;2023-07-28T03:49:14;17.70;99.90
5802;DHT22;2927;49.366;8.530;2023-07-28T03:51:39;17.70;99.90
5802;DHT22;2927;49.366;8.530;2023-07-28T03:54:05;17.70;99.90
5802;DHT22;2927;49.366;8.530;2023-07-28T03:56:30;17.70;99.90
5802;DHT22;2927;49.366;8.530;2023-07-28T03:58:56;17.70;99.90
5802;DHT22;2927;49.366;8.530;2023-07-28T04:01:23;17.70;99.90
5802;DHT22;2927;49.366;8.530;2023-07-28T04:03:49;17.70;99.90
5802;DHT22;2927;49.366;8.530;2023-07-28T04:06:15;17.60;99.90
5802;DHT22;2927;49.366;8.530;2023-07-28T04:08:41;17.60;99.90
5802;DHT22;2927;49.366;8.530;2023-07-28T04:11:07;17.60;99.90
5802;DHT22;2927;49.366;8.530;2023-07-28T04:13:36;17.70;99.90
5802;DHT22;2927;49.366;8.530;2023-07-28T04:16:02;17.70;99.90
5802;DHT22;2927;49.366;8.530;2023-07-28T04:18:27;17.60;99.90
5802;DHT22;2927;49.366;8.530;2023-07-28T04:20:53;17.70;99.90
5802;DHT22;2927;49.366;8.530;2023-07-28T04:23:19;17.60;99.90
5802;DHT22;2927;49.366;8.530;2023-07-28T04:25:44;17.70;99.90
5802;DHT22;2927;49.366;8.530;2023-07-28T04:28:10;17.70;99.90
5802;DHT22;2927;49.366;8.530;2023-07-28T04:30:35;17.70;99.90
5802;DHT22;2927;49.366;8.530;2023-07-28T04:33:01;17.70;99.90
5802;DHT22;2927;49.366;8.530;2023-07-28T04:35:26;17.70;99.90
5802;DHT22;2927;49.366;8.530;2023-07-28T04:37:52;17.70;99.90
5802;DHT22;2927;49.366;8.530;2023-07-28T04:40:19;17.70;99.90
5802;DHT22;2927;49.366;8.530;2023-07-28T04:42:44;17.70;99.90
5802;DHT22;2927;49.366;8.530;2023-07-28T04:45:10;17.70;99.90
5802;DHT22;2927;49.366;8.530;2023-07-28T04:47:35;17.80;99.90
5802;DHT22;2927;49.366;8.530;2023-07-28T04:50:01;17.80;99.90
5802;DHT22;2927;49.366;8.530;2023-07-28T04:52:27;17.80;99.90
5802;DHT22;2927;49.366;8.530;2023-07-28T04:54:52;17.80;99.90
5802;DHT22;2927;49.366;8.530;2023-07-28T04:57:18;17.80;99.90
5802;DHT22;2927;49.366;8.530;2023-07-28T04:59:44;17.80;99.90
5802;DHT22;2927;49.366;8.530;2023-07-28T05:02:10;17.80;99.90
5802;DHT22;2927;49.366;8.530;2023-07-28T05:04:35;17.90;99.90
5802;DHT22;2927;49.366;8.530;2023-07-28T05:07:02;17.90;99.90
5802;DHT22;2927;49.366;8.530;2023-07-28T05:09:28;17.90;99.90
5802;DHT22;2927;49.366;8.530;2023-07-28T05:11:54;17.90;99.90
5802;DHT22;2927;49.366;8.530;2023-07-28T05:14:20;17.90;99.90
5802;DHT22;2927;49.366;8.530;2023-07-28T05:16:46;17.90;99.90
5802;DHT22;2927;49.366;8.530;2023-07-28T05:19:12;17.90;99.90
5802;DHT22;2927;49.366;8.530;2023-07-28T05:21:38;17.90;99.90
5802;DHT22;2927;49.366;8.530;2023-07-28T05:24:04;17.90;99.90
5802;DHT22;2927;49.366;8.530;2023-07-28T05:26:29;17.90;99.90
5802;DHT22;2927;49.366;8.530;2023-07-28T05:28:55;17.80;99.90
5802;DHT22;2927;49.366;8.530;2023-07-28T05:31:21;17.80;99.90
5802;DHT22;2927;49.366;8.530;2023-07-28T05:33:46;17.80;99.90
5802;DHT22;2927;49.366;8.530;2023-07-28T05:36:12;17.90;99.90
5802;DHT22;2927;49.366;8.530;2023-07-28T05:38:37;17.80;99.90
5802;DHT22;2927;49.366;8.530;2023-07-28T05:41:04;17.90;99.90
5802;DHT22;2927;49.366;8.530;2023-07-28T05:43:32;17.90;99.90
5802;DHT22;2927;49.366;8.530;2023-07-28T05:45:59;17.90;99.90
5802;DHT22;2927;49.366;8.530;2023-07-28T05:48:25;17.90;99.90
5802;DHT22;2927;49.366;8.530;2023-07-28T05:50:50;17.90;99.90
5802;DHT22;2927;49.366;8.530;2023-07-28T05:53:20;17.90;99.90
5802;DHT22;2927;49.366;8.530;2023-07-28T05:55:46;17.90;99.90
5802;DHT22;2927;49.366;8.530;2023-07-28T05:58:12;17.90;99.90
5802;DHT22;2927;49.366;8.530;2023-07-28T06:00:39;18.00;99.90
5802;DHT22;2927;49.366;8.530;2023-07-28T06:03:06;18.00;99.90
5802;DHT22;2927;49.366;8.530;2023-07-28T06:05:32;18.00;99.90
5802;DHT22;2927;49.366;8.530;2023-07-28T06:07:57;18.10;99.90
5802;DHT22;2927;49.366;8.530;2023-07-28T06:10:23;18.10;99.90
5802;DHT22;2927;49.366;8.530;2023-07-28T06:12:48;18.10;99.90
5802;DHT22;2927;49.366;8.530;2023-07-28T06:15:14;18.20;99.90
5802;DHT22;2927;49.366;8.530;2023-07-28T06:17:39;18.20;99.90
5802;DHT22;2927;49.366;8.530;2023-07-28T06:20:05;18.20;99.90
5802;DHT22;2927;49.366;8.530;2023-07-28T06:22:31;18.30;99.90
5802;DHT22;2927;49.366;8.530;2023-07-28T06:24:57;18.30;99.90
5802;DHT22;2927;49.366;8.530;2023-07-28T06:27:22;18.30;99.90
5802;DHT22;2927;49.366;8.530;2023-07-28T06:29:48;18.40;99.90
5802;DHT22;2927;49.366;8.530;2023-07-28T06:32:13;18.50;99.90
5802;DHT22;2927;49.366;8.530;2023-07-28T06:34:39;18.50;99.90
5802;DHT22;2927;49.366;8.530;2023-07-28T06:37:04;18.50;99.90
5802;DHT22;2927;49.366;8.530;2023-07-28T06:39:30;18.50;99.90
5802;DHT22;2927;49.366;8.530;2023-07-28T06:41:56;18.50;99.90
5802;DHT22;2927;49.366;8.530;2023-07-28T06:44:21;18.50;99.90
5802;DHT22;2927;49.366;8.530;2023-07-28T06:46:47;18.50;99.90
5802;DHT22;2927;49.366;8.530;2023-07-28T06:49:13;18.60;99.90
5802;DHT22;2927;49.366;8.530;2023-07-28T06:51:39;18.70;99.90
5802;DHT22;2927;49.366;8.530;2023-07-28T06:54:04;18.80;99.90
5802;DHT22;2927;49.366;8.530;2023-07-28T06:56:30;18.80;99.90
5802;DHT22;2927;49.366;8.530;2023-07-28T06:58:55;18.90;99.90
5802;DHT22;2927;49.366;8.530;2023-07-28T07:01:21;19.00;99.90
5802;DHT22;2927;49.366;8.530;2023-07-28T07:03:47;19.00;99.90
5802;DHT22;2927;49.366;8.530;2023-07-28T07:06:13;19.00;99.90
5802;DHT22;2927;49.366;8.530;2023-07-28T07:08:38;19.10;99.90
5802;DHT22;2927;49.366;8.530;2023-07-28T07:11:04;19.00;99.90
5802;DHT22;2927;49.366;8.530;2023-07-28T07:13:31;19.10;99.90
5802;DHT22;2927;49.366;8.530;2023-07-28T07:15:57;19.10;99.90
5802;DHT22;2927;49.366;8.530;2023-07-28T07:18:22;19.10;99.90
5802;DHT22;2927;49.366;8.530;2023-07-28T07:20:48;19.00;99.90
5802;DHT22;2927;49.366;8.530;2023-07-28T07:23:13;19.00;99.90
5802;DHT22;2927;49.366;8.530;2023-07-28T07:25:39;19.10;99.90
5802;DHT22;2927;49.366;8.530;2023-07-28T07:28:05;19.20;99.90
5802;DHT22;2927;49.366;8.530;2023-07-28T07:30:34;19.20;99.90
5802;DHT22;2927;49.366;8.530;2023-07-28T07:33:00;19.30;99.90
5802;DHT22;2927;49.366;8.530;2023-07-28T07:35:26;19.40;99.90
5802;DHT22;2927;49.366;8.530;2023-07-28T07:37:51;19.40;99.90
5802;DHT22;2927;49.366;8.530;2023-07-28T07:40:17;19.40;99.90
5802;DHT22;2927;49.366;8.530;2023-07-28T07:42:47;19.40;99.90
5802;DHT22;2927;49.366;8.530;2023-07-28T07:45:14;19.30;99.90
5802;DHT22;2927;49.366;8.530;2023-07-28T07:47:41;19.30;99.90
5802;DHT22;2927;49.366;8.530;2023-07-28T07:50:07;19.30;99.90
5802;DHT22;2927;49.366;8.530;2023-07-28T07:52:37;19.30;99.90
5802;DHT22;2927;49.366;8.530;2023-07-28T07:55:03;19.40;99.90
5802;DHT22;2927;49.366;8.530;2023-07-28T07:57:29;19.60;99.90
5802;DHT22;2927;49.366;8.530;2023-07-28T07:59:57;19.70;99.90
5802;DHT22;2927;49.366;8.530;2023-07-28T08:02:22;19.90;99.90
5802;DHT22;2927;49.366;8.530;2023-07-28T08:04:48;20.20;99.90
5802;DHT22;2927;49.366;8.530;2023-07-28T08:07:13;20.50;99.90
5802;DHT22;2927;49.366;8.530;2023-07-28T08:09:41;20.60;99.90
5802;DHT22;2927;49.366;8.530;2023-07-28T08:12:07;20.70;99.90
5802;DHT22;2927;49.366;8.530;2023-07-28T08:14:33;20.80;99.90
5802;DHT22;2927;49.366;8.530;2023-07-28T08:16:59;20.80;99.90
5802;DHT22;2927;49.366;8.530;2023-07-28T08:19:25;20.80;99.90
5802;DHT22;2927;49.366;8.530;2023-07-28T08:21:51;20.80;99.90
5802;DHT22;2927;49.366;8.530;2023-07-28T08:24:16;20.90;99.90
5802;DHT22;2927;49.366;8.530;2023-07-28T08:26:42;21.00;99.90
5802;DHT22;2927;49.366;8.530;2023-07-28T08:29:07;21.20;99.90
5802;DHT22;2927;49.366;8.530;2023-07-28T08:31:33;21.20;99.90
5802;DHT22;2927;49.366;8.530;2023-07-28T08:33:58;21.20;99.90
5802;DHT22;2927;49.366;8.530;2023-07-28T08:36:24;21.10;99.90
5802;DHT22;2927;49.366;8.530;2023-07-28T08:38:50;21.20;99.90
5802;DHT22;2927;49.366;8.530;2023-07-28T08:41:15;21.20;99.90
5802;DHT22;2927;49.366;8.530;2023-07-28T08:43:41;21.10;99.90
5802;DHT22;2927;49.366;8.530;2023-07-28T08:46:07;21.10;99.90
5802;DHT22;2927;49.366;8.530;2023-07-28T08:48:36;21.10;99.90
5802;DHT22;2927;49.366;8.530;2023-07-28T08:51:02;21.10;99.90
5802;DHT22;2927;49.366;8.530;2023-07-28T08:53:29;21.30;99.90
5802;DHT22;2927;49.366;8.530;2023-07-28T08:55:56;21.50;99.90
5802;DHT22;2927;49.366;8.530;2023-07-28T08:58:22;21.70;99.90
5802;DHT22;2927;49.366;8.530;2023-07-28T09:00:50;22.00;99.90
5802;DHT22;2927;49.366;8.530;2023-07-28T09:03:17;22.20;99.90
5802;DHT22;2927;49.366;8.530;2023-07-28T09:05:43;22.50;99.90
5802;DHT22;2927;49.366;8.530;2023-07-28T09:08:12;22.80;99.90
5802;DHT22;2927;49.366;8.530;2023-07-28T09:10:45;22.90;99.90
5802;DHT22;2927;49.366;8.530;2023-07-28T09:13:12;23.10;99.90
5802;DHT22;2927;49.366;8.530;2023-07-28T09:15:38;23.30;99.40
5802;DHT22;2927;49.366;8.530;2023-07-28T09:18:13;24.00;46.60
5802;DHT22;2927;49.366;8.530;2023-07-28T09:20:40;25.00;1.00
5802;DHT22;2927;49.366;8.530;2023-07-28T09:23:07;25.70;1.00
5802;DHT22;2927;49.366;8.530;2023-07-28T09:25:34;27.40;1.00
5802;DHT22;2927;49.366;8.530;2023-07-28T09:28:00;29.20;1.00
5802;DHT22;2927;49.366;8.530;2023-07-28T09:30:26;29.90;1.00
5802;DHT22;2927;49.366;8.530;2023-07-28T09:32:54;30.20;99.90
5802;DHT22;2927;49.366;8.530;2023-07-28T09:35:21;29.40;1.00
5802;DHT22;2927;49.366;8.530;2023-07-28T09:37:51;28.70;1.00
5802;DHT22;2927;49.366;8.530;2023-07-28T09:40:22;27.90;1.00
5802;DHT22;2927;49.366;8.530;2023-07-28T09:42:49;27.30;99.90
5802;DHT22;2927;49.366;8.530;2023-07-28T09:45:18;26.70;1.00
5802;DHT22;2927;49.366;8.530;2023-07-28T09:47:45;26.50;99.90
5802;DHT22;2927;49.366;8.530;2023-07-28T09:50:15;26.90;1.00
5802;DHT22;2927;49.366;8.530;2023-07-28T09:52:53;27.80;1.00
5802;DHT22;2927;49.366;8.530;2023-07-28T09:55:20;28.80;1.00
5802;DHT22;2927;49.366;8.530;2023-07-28T09:57:51;30.10;1.00
5802;DHT22;2927;49.366;8.530;2023-07-28T10:00:17;30.10;99.90
5802;DHT22;2927;49.366;8.530;2023-07-28T10:02:44;29.60;99.90
5802;DHT22;2927;49.366;8.530;2023-07-28T10:05:10;29.40;99.90
5802;DHT22;2927;49.366;8.530;2023-07-28T10:07:39;29.10;99.90
5802;DHT22;2927;49.366;8.530;2023-07-28T10:10:06;29.70;99.90
5802;DHT22;2927;49.366;8.530;2023-07-28T10:12:46;30.90;99.90
5802;DHT22;2927;49.366;8.530;2023-07-28T10:15:14;31.50;99.90
5802;DHT22;2927;49.366;8.530;2023-07-28T10:17:47;31.50;2.90
5802;DHT22;2927;49.366;8.530;2023-07-28T10:20:36;30.70;22.60
5802;DHT22;2927;49.366;8.530;2023-07-28T10:23:20;29.40;99.90
5802;DHT22;2927;49.366;8.530;2023-07-28T10:25:47;28.80;99.90
5802;DHT22;2927;49.366;8.530;2023-07-28T10:28:29;28.40;1.00
5802;DHT22;2927;49.366;8.530;2023-07-28T10:30:57;27.80;99.90
5802;DHT22;2927;49.366;8.530;2023-07-28T10:35:52;27.00;99.90
5802;DHT22;2927;49.366;8.530;2023-07-28T10:38:44;26.20;99.90
5802;DHT22;2927;49.366;8.530;2023-07-28T10:41:17;25.50;1.00
5802;DHT22;2927;49.366;8.530;2023-07-28T10:43:45;24.60;1.00
5802;DHT22;2927;49.366;8.530;2023-07-28T10:46:17;24.10;57.10
5802;DHT22;2927;49.366;8.530;2023-07-28T10:48:45;23.90;1.00
5802;DHT22;2927;49.366;8.530;2023-07-28T10:51:31;23.70;1.00
5802;DHT22;2927;49.366;8.530;2023-07-28T10:53:59;23.70;1.00
5802;DHT22;2927;49.366;8.530;2023-07-28T10:56:26;23.60;1.00
5802;DHT22;2927;49.366;8.530;2023-07-28T10:59:01;23.60;99.90
5802;DHT22;2927;49.366;8.530;2023-07-28T11:01:31;23.90;1.00
5802;DHT22;2927;49.366;8.530;2023-07-28T11:04:12;24.00;1.00
5802;DHT22;2927;49.366;8.530;2023-07-28T11:06:41;24.10;1.00
5802;DHT22;2927;49.366;8.530;2023-07-28T11:09:08;24.10;1.00
5802;DHT22;2927;49.366;8.530;2023-07-28T11:11:35;23.90;1.00
5802;DHT22;2927;49.366;8.530;2023-07-28T11:14:02;23.90;1.00
5802;DHT22;2927;49.366;8.530;2023-07-28T11:16:28;24.00;99.90
5802;DHT22;2927;49.366;8.530;2023-07-28T11:19:01;24.00;1.00
5802;DHT22;2927;49.366;8.530;2023-07-28T11:21:27;23.90;99.90
5802;DHT22;2927;49.366;8.530;2023-07-28T11:23:52;23.80;99.90
5802;DHT22;2927;49.366;8.530;2023-07-28T11:26:19;23.90;1.00
5802;DHT22;2927;49.366;8.530;2023-07-28T11:28:46;23.70;1.00
5802;DHT22;2927;49.366;8.530;2023-07-28T11:31:12;23.40;1.00
5802;DHT22;2927;49.366;8.530;2023-07-28T11:33:39;23.30;99.90
5802;DHT22;2927;49.366;8.530;2023-07-28T11:36:05;23.30;1.00
5802;DHT22;2927;49.366;8.530;2023-07-28T11:38:32;23.60;1.00
5802;DHT22;2927;49.366;8.530;2023-07-28T11:40:58;23.70;1.00
5802;DHT22;2927;49.366;8.530;2023-07-28T11:43:25;23.90;99.90
5802;DHT22;2927;49.366;8.530;2023-07-28T11:45:51;24.00;1.00
5802;DHT22;2927;49.366;8.530;2023-07-28T11:48:16;24.10;1.00
5802;DHT22;2927;49.366;8.530;2023-07-28T11:50:43;23.90;1.00
5802;DHT22;2927;49.366;8.530;2023-07-28T11:53:10;23.90;1.00
5802;DHT22;2927;49.366;8.530;2023-07-28T11:55:38;24.00;99.90
5802;DHT22;2927;49.366;8.530;2023-07-28T11:58:05;24.00;1.00
5802;DHT22;2927;49.366;8.530;2023-07-28T12:00:32;24.00;50.70
5802;DHT22;2927;49.366;8.530;2023-07-28T12:03:10;23.90;1.00
5802;DHT22;2927;49.366;8.530;2023-07-28T12:05:37;23.60;99.90
5802;DHT22;2927;49.366;8.530;2023-07-28T12:08:03;23.60;1.00
5802;DHT22;2927;49.366;8.530;2023-07-28T12:10:29;23.40;99.90
5802;DHT22;2927;49.366;8.530;2023-07-28T12:12:57;23.40;1.00
5802;DHT22;2927;49.366;8.530;2023-07-28T12:15:27;23.30;99.90
5802;DHT22;2927;49.366;8.530;2023-07-28T12:20:47;22.70;56.20
5802;DHT22;2927;49.366;8.530;2023-07-28T12:23:18;22.40;1.00
5802;DHT22;2927;49.366;8.530;2023-07-28T12:25:44;22.30;1.00
5802;DHT22;2927;49.366;8.530;2023-07-28T12:28:10;22.10;1.00
5802;DHT22;2927;49.366;8.530;2023-07-28T12:30:36;21.90;1.00
5802;DHT22;2927;49.366;8.530;2023-07-28T12:33:03;21.80;1.00
5802;DHT22;2927;49.366;8.530;2023-07-28T12:35:30;21.80;1.00
5802;DHT22;2927;49.366;8.530;2023-07-28T12:37:58;21.90;40.50
5802;DHT22;2927;49.366;8.530;2023-07-28T12:40:27;21.90;99.90
5802;DHT22;2927;49.366;8.530;2023-07-28T12:42:56;21.90;99.90
5802;DHT22;2927;49.366;8.530;2023-07-28T12:45:22;21.70;99.90
5802;DHT22;2927;49.366;8.530;2023-07-28T12:47:51;21.50;99.90
5802;DHT22;2927;49.366;8.530;2023-07-28T12:50:18;21.30;99.90
5802;DHT22;2927;49.366;8.530;2023-07-28T12:52:43;21.10;99.90
5802;DHT22;2927;49.366;8.530;2023-07-28T12:55:09;20.90;99.90
5802;DHT22;2927;49.366;8.530;2023-07-28T12:57:35;20.80;99.90
5802;DHT22;2927;49.366;8.530;2023-07-28T13:00:07;20.60;99.90
5802;DHT22;2927;49.366;8.530;2023-07-28T13:02:42;20.50;99.90
5802;DHT22;2927;49.366;8.530;2023-07-28T13:05:09;20.40;99.90
5802;DHT22;2927;49.366;8.530;2023-07-28T13:07:38;20.40;99.90
5802;DHT22;2927;49.366;8.530;2023-07-28T13:10:10;20.40;99.90
5802;DHT22;2927;49.366;8.530;2023-07-28T13:12:36;20.30;99.90
5802;DHT22;2927;49.366;8.530;2023-07-28T13:15:02;20.40;99.90
5802;DHT22;2927;49.366;8.530;2023-07-28T13:17:28;20.40;99.90
5802;DHT22;2927;49.366;8.530;2023-07-28T13:19:54;20.40;99.90
5802;DHT22;2927;49.366;8.530;2023-07-28T13:22:19;20.40;99.90
5802;DHT22;2927;49.366;8.530;2023-07-28T13:24:45;20.40;99.90
5802;DHT22;2927;49.366;8.530;2023-07-28T13:27:11;20.40;99.90
5802;DHT22;2927;49.366;8.530;2023-07-28T13:29:36;20.40;99.90
5802;DHT22;2927;49.366;8.530;2023-07-28T13:32:02;20.40;99.90
5802;DHT22;2927;49.366;8.530;2023-07-28T13:34:28;20.30;99.90
5802;DHT22;2927;49.366;8.530;2023-07-28T13:36:55;20.30;99.90
5802;DHT22;2927;49.366;8.530;2023-07-28T13:39:20;20.30;99.90
5802;DHT22;2927;49.366;8.530;2023-07-28T13:41:46;20.20;99.90
5802;DHT22;2927;49.366;8.530;2023-07-28T13:44:12;20.20;99.90
5802;DHT22;2927;49.366;8.530;2023-07-28T13:46:37;20.20;99.90
5802;DHT22;2927;49.366;8.530;2023-07-28T13:49:03;20.20;99.90
5802;DHT22;2927;49.366;8.530;2023-07-28T13:51:28;20.20;99.90
5802;DHT22;2927;49.366;8.530;2023-07-28T13:53:54;20.20;99.90
5802;DHT22;2927;49.366;8.530;2023-07-28T13:56:20;20.20;99.90
5802;DHT22;2927;49.366;8.530;2023-07-28T13:58:45;20.20;99.90
5802;DHT22;2927;49.366;8.530;2023-07-28T14:01:11;20.20;99.90
5802;DHT22;2927;49.366;8.530;2023-07-28T14:03:36;20.20;99.90
5802;DHT22;2927;49.366;8.530;2023-07-28T14:06:02;20.00;99.90
5802;DHT22;2927;49.366;8.530;2023-07-28T14:08:28;20.10;99.90
5802;DHT22;2927;49.366;8.530;2023-07-28T14:10:53;20.00;99.90
5802;DHT22;2927;49.366;8.530;2023-07-28T14:13:20;19.90;99.90
5802;DHT22;2927;49.366;8.530;2023-07-28T14:15:47;20.00;99.90
5802;DHT22;2927;49.366;8.530;2023-07-28T14:18:12;20.00;99.90
5802;DHT22;2927;49.366;8.530;2023-07-28T14:20:38;19.90;99.90
5802;DHT22;2927;49.366;8.530;2023-07-28T14:23:23;19.80;99.90
5802;DHT22;2927;49.366;8.530;2023-07-28T14:25:51;19.80;99.90
5802;DHT22;2927;49.366;8.530;2023-07-28T14:28:16;19.80;99.90
5802;DHT22;2927;49.366;8.530;2023-07-28T14:30:42;19.80;99.90
5802;DHT22;2927;49.366;8.530;2023-07-28T14:33:15;19.70;99.90
5802;DHT22;2927;49.366;8.530;2023-07-28T14:35:42;19.60;99.90
5802;DHT22;2927;49.366;8.530;2023-07-28T14:38:08;19.70;99.90
5802;DHT22;2927;49.366;8.530;2023-07-28T14:40:36;19.80;99.90
5802;DHT22;2927;49.366;8.530;2023-07-28T14:43:02;19.80;99.90
5802;DHT22;2927;49.366;8.530;2023-07-28T14:45:27;19.80;99.90
5802;DHT22;2927;49.366;8.530;2023-07-28T14:47:54;19.80;99.90
5802;DHT22;2927;49.366;8.530;2023-07-28T14:50:21;19.90;99.90
5802;DHT22;2927;49.366;8.530;2023-07-28T14:52:47;19.90;99.90
5802;DHT22;2927;49.366;8.530;2023-07-28T14:55:14;19.90;99.90
5802;DHT22;2927;49.366;8.530;2023-07-28T14:57:40;19.90;99.90
5802;DHT22;2927;49.366;8.530;2023-07-28T15:00:06;19.80;99.90
5802;DHT22;2927;49.366;8.530;2023-07-28T15:02:33;19.80;99.90
5802;DHT22;2927;49.366;8.530;2023-07-28T15:04:58;19.80;99.90
5802;DHT22;2927;49.366;8.530;2023-07-28T15:07:24;19.80;99.90
5802;DHT22;2927;49.366;8.530;2023-07-28T15:09:51;19.90;99.90
5802;DHT22;2927;49.366;8.530;2023-07-28T15:12:17;19.80;99.90
5802;DHT22;2927;49.366;8.530;2023-07-28T15:14:42;19.90;99.90
5802;DHT22;2927;49.366;8.530;2023-07-28T15:17:08;19.90;99.90
5802;DHT22;2927;49.366;8.530;2023-07-28T15:19:34;19.90;99.90
5802;DHT22;2927;49.366;8.530;2023-07-28T15:22:00;19.90;99.90
5802;DHT22;2927;49.366;8.530;2023-07-28T15:24:25;20.00;99.90
5802;DHT22;2927;49.366;8.530;2023-07-28T15:26:51;20.00;99.90
5802;DHT22;2927;49.366;8.530;2023-07-28T15:29:18;20.00;99.90
5802;DHT22;2927;49.366;8.530;2023-07-28T15:31:43;20.00;99.90
5802;DHT22;2927;49.366;8.530;2023-07-28T15:34:09;20.00;99.90
5802;DHT22;2927;49.366;8.530;2023-07-28T15:36:35;20.00;99.90
5802;DHT22;2927;49.366;8.530;2023-07-28T15:39:00;20.00;99.90
5802;DHT22;2927;49.366;8.530;2023-07-28T15:41:26;19.90;99.90
5802;DHT22;2927;49.366;8.530;2023-07-28T15:43:52;19.90;99.90
5802;DHT22;2927;49.366;8.530;2023-07-28T15:46:17;19.90;99.90
5802;DHT22;2927;49.366;8.530;2023-07-28T15:48:43;19.90;99.90
5802;DHT22;2927;49.366;8.530;2023-07-28T15:51:09;19.90;99.90
5802;DHT22;2927;49.366;8.530;2023-07-28T15:53:35;19.90;99.90
5802;DHT22;2927;49.366;8.530;2023-07-28T15:56:00;19.90;99.90
5802;DHT22;2927;49.366;8.530;2023-07-28T15:58:26;19.80;99.90
5802;DHT22;2927;49.366;8.530;2023-07-28T16:00:51;19.80;99.90
5802;DHT22;2927;49.366;8.530;2023-07-28T16:03:17;19.80;99.90
5802;DHT22;2927;49.366;8.530;2023-07-28T16:05:43;19.80;99.90
5802;DHT22;2927;49.366;8.530;2023-07-28T16:08:09;19.80;99.90
5802;DHT22;2927;49.366;8.530;2023-07-28T16:10:35;19.80;99.90
5802;DHT22;2927;49.366;8.530;2023-07-28T16:13:00;19.80;99.90